createdAt,value
2018-09-27T00:02:18.717Z,9.67
2018-09-27T00:04:48.000Z,9.76
2018-09-27T00:07:17.110Z,9.58
2018-09-27T00:09:46.393Z,9.55
2018-09-27T00:12:15.670Z,9.46
2018-09-27T00:14:44.773Z,9.32
2018-09-27T00:17:13.995Z,9.27
2018-09-27T00:19:43.082Z,9.43
2018-09-27T00:22:12.381Z,9.58
2018-09-27T00:24:41.709Z,9.57
2018-09-27T00:27:10.857Z,9.55
2018-09-27T00:29:39.977Z,9.32
2018-09-27T00:32:09.148Z,9.32
2018-09-27T00:34:38.468Z,9.27
2018-09-27T00:37:07.549Z,9.22
2018-09-27T00:39:36.625Z,9.13
2018-09-27T00:42:05.689Z,9.12
2018-09-27T00:44:34.844Z,9.06
2018-09-27T00:47:04.034Z,9.12
2018-09-27T00:49:33.108Z,9.13
2018-09-27T00:52:02.287Z,9.10
2018-09-27T00:54:31.355Z,9.03
2018-09-27T00:57:00.662Z,9.06
2018-09-27T00:59:29.783Z,8.94
2018-09-27T01:01:58.969Z,8.98
2018-09-27T01:04:28.117Z,8.98
2018-09-27T01:06:57.248Z,8.94
2018-09-27T01:09:26.406Z,8.97
2018-09-27T01:11:55.505Z,8.97
2018-09-27T01:14:24.644Z,8.94
2018-09-27T01:16:53.716Z,8.97
2018-09-27T01:19:22.798Z,8.87
2018-09-27T01:21:51.920Z,8.85
2018-09-27T01:24:21.012Z,8.81
2018-09-27T01:26:50.084Z,8.96
2018-09-27T01:29:19.168Z,9.10
2018-09-27T01:31:48.263Z,9.16
2018-09-27T01:34:17.456Z,9.16
2018-09-27T01:36:46.567Z,8.96
2018-09-27T01:39:15.641Z,9.17
2018-09-27T01:41:44.834Z,9.25
2018-09-27T01:44:14.059Z,9.17
2018-09-27T01:46:43.130Z,8.98
2018-09-27T01:49:12.232Z,8.87
2018-09-27T01:51:41.324Z,8.70
2018-09-27T01:54:10.468Z,8.73
2018-09-27T01:56:39.612Z,8.65
2018-09-27T01:59:08.727Z,8.59
2018-09-27T02:01:37.804Z,8.65
2018-09-27T02:04:07.020Z,8.64
2018-09-27T02:06:36.091Z,8.67
2018-09-27T02:09:07.569Z,8.70
2018-09-27T02:11:36.920Z,8.70
2018-09-27T02:14:06.350Z,8.60
2018-09-27T02:16:35.609Z,8.57
2018-09-27T02:19:04.720Z,8.44
2018-09-27T02:21:33.812Z,8.53
2018-09-27T02:24:02.979Z,8.71
2018-09-27T02:26:32.987Z,8.68
2018-09-27T02:29:02.712Z,8.52
2018-09-27T02:31:31.984Z,8.49
2018-09-27T02:34:01.196Z,8.48
2018-09-27T02:36:30.379Z,8.28
2018-09-27T02:38:59.513Z,8.36
2018-09-27T02:41:28.589Z,8.34
2018-09-27T02:43:57.745Z,8.32
2018-09-27T02:46:26.805Z,8.32
2018-09-27T02:48:55.953Z,8.26
2018-09-27T02:51:25.025Z,8.26
2018-09-27T02:53:54.236Z,8.23
2018-09-27T02:56:23.350Z,8.22
2018-09-27T02:58:52.465Z,8.31
2018-09-27T03:01:21.669Z,8.41
2018-09-27T03:03:50.752Z,8.49
2018-09-27T03:06:19.814Z,8.42
2018-09-27T03:08:48.952Z,8.24
2018-09-27T03:11:18.096Z,8.24
2018-09-27T03:13:47.292Z,8.16
2018-09-27T03:16:16.308Z,8.07
2018-09-27T03:18:45.391Z,8.06
2018-09-27T03:21:14.493Z,7.99
2018-09-27T03:23:43.713Z,8.02
2018-09-27T03:26:12.978Z,8.05
2018-09-27T03:28:42.080Z,8.04
2018-09-27T03:31:11.140Z,8.05
2018-09-27T03:33:40.324Z,8.03
2018-09-27T03:36:09.385Z,8.04
2018-09-27T03:38:38.562Z,8.08
2018-09-27T03:41:07.764Z,7.94
2018-09-27T03:43:36.952Z,8.17
2018-09-27T03:46:06.008Z,8.19
2018-09-27T03:48:35.088Z,8.08
2018-09-27T03:51:04.247Z,8.07
2018-09-27T03:53:33.447Z,8.01
2018-09-27T03:56:02.556Z,7.93
2018-09-27T03:58:31.621Z,8.09
2018-09-27T04:01:00.719Z,8.15
2018-09-27T04:03:29.881Z,7.98
2018-09-27T04:05:58.948Z,7.87
2018-09-27T04:08:28.333Z,7.77
2018-09-27T04:10:57.785Z,7.74
2018-09-27T04:13:26.880Z,7.81
2018-09-27T04:15:56.039Z,7.82
2018-09-27T04:18:25.237Z,7.79
2018-09-27T04:20:54.404Z,7.80
2018-09-27T04:23:24.295Z,7.76
2018-09-27T04:25:53.364Z,7.92
2018-09-27T04:28:22.884Z,7.89
2018-09-27T04:30:52.016Z,7.84
2018-09-27T04:33:21.213Z,7.76
2018-09-27T04:35:50.324Z,7.79
2018-09-27T04:38:19.524Z,7.73
2018-09-27T04:40:48.607Z,7.73
2018-09-27T04:43:17.816Z,7.91
2018-09-27T04:45:46.916Z,7.88
2018-09-27T04:48:16.090Z,7.93
2018-09-27T04:50:45.154Z,7.88
2018-09-27T04:53:14.344Z,7.87
2018-09-27T04:55:43.507Z,7.81
2018-09-27T04:58:12.592Z,7.83
2018-09-27T05:00:41.786Z,7.80
2018-09-27T05:03:10.889Z,7.83
2018-09-27T05:05:40.008Z,7.73
2018-09-27T05:08:09.108Z,7.81
2018-09-27T05:10:38.532Z,7.82
2018-09-27T05:13:07.668Z,7.83
2018-09-27T05:15:36.764Z,8.11
2018-09-27T05:18:06.059Z,8.21
2018-09-27T05:20:35.147Z,8.05
2018-09-27T05:23:04.311Z,8.04
2018-09-27T05:25:33.544Z,8.05
2018-09-27T05:28:02.600Z,8.01
2018-09-27T05:30:31.732Z,8.00
2018-09-27T05:33:00.932Z,8.03
2018-09-27T05:35:30.048Z,8.00
2018-09-27T05:37:59.129Z,8.08
2018-09-27T05:40:28.289Z,8.12
2018-09-27T05:42:57.471Z,8.07
2018-09-27T05:45:26.661Z,8.18
2018-09-27T05:47:56.146Z,8.24
2018-09-27T05:50:25.215Z,8.22
2018-09-27T05:52:54.415Z,8.30
2018-09-27T05:55:23.565Z,8.32
2018-09-27T05:57:52.847Z,8.32
2018-09-27T06:00:22.011Z,8.47
2018-09-27T06:02:51.108Z,8.58
2018-09-27T06:05:20.181Z,8.68
2018-09-27T06:07:49.389Z,8.67
2018-09-27T06:10:18.598Z,8.80
2018-09-27T06:12:47.703Z,8.87
2018-09-27T06:15:16.983Z,8.97
2018-09-27T06:17:46.097Z,9.04
2018-09-27T06:20:15.225Z,9.12
2018-09-27T06:22:44.380Z,9.20
2018-09-27T06:25:13.617Z,9.31
2018-09-27T06:27:43.074Z,9.43
2018-09-27T06:30:12.136Z,9.51
2018-09-27T06:32:41.544Z,9.71
2018-09-27T06:35:10.948Z,9.81
2018-09-27T06:37:39.972Z,9.83
2018-09-27T06:40:09.114Z,9.88
2018-09-27T06:42:38.179Z,10.08
2018-09-27T06:45:08.204Z,10.32
2018-09-27T06:47:37.406Z,10.38
2018-09-27T06:50:07.176Z,10.45
2018-09-27T06:52:36.262Z,10.54
2018-09-27T06:55:05.577Z,10.72
2018-09-27T06:57:34.571Z,10.87
2018-09-27T07:00:04.014Z,10.91
2018-09-27T07:02:33.098Z,11.03
2018-09-27T07:05:02.386Z,11.23
2018-09-27T07:07:31.456Z,11.37
2018-09-27T07:10:00.551Z,11.55
2018-09-27T07:12:29.754Z,11.69
2018-09-27T07:14:58.788Z,11.76
2018-09-27T07:17:27.878Z,11.80
2018-09-27T07:19:56.978Z,11.99
2018-09-27T07:22:26.071Z,12.00
2018-09-27T07:24:55.161Z,12.11
2018-09-27T07:27:24.229Z,12.19
2018-09-27T07:29:53.429Z,12.05
2018-09-27T07:32:22.536Z,12.53
2018-09-27T07:34:51.641Z,12.67
2018-09-27T07:37:20.844Z,12.55
2018-09-27T07:39:49.948Z,12.48
2018-09-27T07:42:19.063Z,12.59
2018-09-27T07:44:48.472Z,12.66
2018-09-27T07:47:17.609Z,12.72
2018-09-27T07:49:46.914Z,12.82
2018-09-27T07:52:16.000Z,12.75
2018-09-27T07:54:45.268Z,12.87
2018-09-27T07:57:14.336Z,12.85
2018-09-27T07:59:43.628Z,12.97
2018-09-27T08:02:12.822Z,13.07
2018-09-27T08:04:41.916Z,13.08
2018-09-27T08:07:11.132Z,13.13
2018-09-27T08:09:40.284Z,13.33
2018-09-27T08:12:09.520Z,13.33
2018-09-27T08:14:38.711Z,13.46
2018-09-27T08:17:07.807Z,13.62
2018-09-27T08:19:36.938Z,13.67
2018-09-27T08:22:06.042Z,13.81
2018-09-27T08:24:35.366Z,13.84
2018-09-27T08:27:04.460Z,13.90
2018-09-27T08:29:33.600Z,13.84
2018-09-27T08:32:02.959Z,13.85
2018-09-27T08:34:32.076Z,14.17
2018-09-27T08:37:01.260Z,14.22
2018-09-27T08:39:30.415Z,14.29
2018-09-27T08:41:59.540Z,14.33
2018-09-27T08:44:28.669Z,14.36
2018-09-27T08:46:57.747Z,14.63
2018-09-27T08:49:27.033Z,14.43
2018-09-27T08:51:56.140Z,14.42
2018-09-27T08:54:25.274Z,14.92
2018-09-27T08:56:54.436Z,15.05
2018-09-27T08:59:23.545Z,15.00
2018-09-27T09:01:52.625Z,15.16
2018-09-27T09:04:21.717Z,14.94
2018-09-27T09:06:51.049Z,15.09
2018-09-27T09:09:20.220Z,15.25
2018-09-27T09:11:49.316Z,15.31
2018-09-27T09:14:18.528Z,15.25
2018-09-27T09:16:47.624Z,15.28
2018-09-27T09:19:16.808Z,15.48
2018-09-27T09:21:45.994Z,15.49
2018-09-27T09:24:15.204Z,15.70
2018-09-27T09:26:44.392Z,15.54
2018-09-27T09:29:13.605Z,15.58
2018-09-27T09:31:42.776Z,15.64
2018-09-27T09:34:11.860Z,16.15
2018-09-27T09:36:40.965Z,16.34
2018-09-27T09:39:10.064Z,16.16
2018-09-27T09:41:39.176Z,15.84
2018-09-27T09:44:08.253Z,16.05
2018-09-27T09:46:37.551Z,16.30
2018-09-27T09:49:06.656Z,16.44
2018-09-27T09:51:35.843Z,16.48
2018-09-27T09:54:05.053Z,16.40
2018-09-27T09:56:34.159Z,16.67
2018-09-27T09:59:03.289Z,16.81
2018-09-27T10:01:32.361Z,16.79
2018-09-27T10:04:01.541Z,17.00
2018-09-27T10:06:30.601Z,17.10
2018-09-27T10:08:59.707Z,16.93
2018-09-27T10:11:28.909Z,17.51
2018-09-27T10:13:58.025Z,17.70
2018-09-27T10:16:27.093Z,17.71
2018-09-27T10:18:56.224Z,17.72
2018-09-27T10:21:25.315Z,17.97
2018-09-27T10:23:54.528Z,17.93
2018-09-27T10:26:23.610Z,17.95
2018-09-27T10:28:52.936Z,18.19
2018-09-27T10:31:22.003Z,18.61
2018-09-27T10:33:51.113Z,18.61
2018-09-27T10:36:20.290Z,18.34
2018-09-27T10:38:49.408Z,18.07
2018-09-27T10:41:18.481Z,18.26
2018-09-27T10:43:47.588Z,18.44
2018-09-27T10:46:16.772Z,18.24
2018-09-27T10:48:45.958Z,18.52
2018-09-27T10:51:15.171Z,18.84
2018-09-27T10:53:44.219Z,19.09
2018-09-27T10:56:13.312Z,19.09
2018-09-27T10:58:42.448Z,18.83
2018-09-27T11:01:11.559Z,18.79
2018-09-27T11:03:40.733Z,19.16
2018-09-27T11:06:09.832Z,19.58
2018-09-27T11:08:39.030Z,19.58
2018-09-27T11:11:08.203Z,19.46
2018-09-27T11:13:37.259Z,19.56
2018-09-27T11:16:06.347Z,20.21
2018-09-27T11:18:35.429Z,20.60
2018-09-27T11:21:04.651Z,20.68
2018-09-27T11:23:33.812Z,20.77
2018-09-27T11:26:03.021Z,21.10
2018-09-27T11:28:38.004Z,21.59
2018-09-27T11:31:12.373Z,22.10
2018-09-27T11:33:41.577Z,22.50
2018-09-27T11:36:11.234Z,22.61
2018-09-27T11:38:40.415Z,23.57
2018-09-27T11:41:09.449Z,24.03
2018-09-27T11:43:39.001Z,23.71
2018-09-27T11:46:08.093Z,24.35
2018-09-27T11:48:37.249Z,26.91
2018-09-27T11:51:06.385Z,26.10
2018-09-27T11:53:35.429Z,26.98
2018-09-27T11:56:04.589Z,25.02
2018-09-27T11:58:33.636Z,25.86
2018-09-27T12:01:03.031Z,26.97
2018-09-27T12:03:32.097Z,28.06
2018-09-27T12:06:01.361Z,29.00
2018-09-27T12:08:30.556Z,29.63
2018-09-27T12:10:59.632Z,27.87
2018-09-27T12:13:28.810Z,29.21
2018-09-27T12:15:57.836Z,28.96
2018-09-27T12:18:26.924Z,30.85
2018-09-27T12:20:56.124Z,31.61
2018-09-27T12:23:25.195Z,30.87
2018-09-27T12:25:54.296Z,29.35
2018-09-27T12:28:23.361Z,30.93
2018-09-27T12:30:52.672Z,31.71
2018-09-27T12:33:21.679Z,29.55
2018-09-27T12:35:50.793Z,32.21
2018-09-27T12:38:20.048Z,32.79
2018-09-27T12:40:49.093Z,32.20
2018-09-27T12:43:18.173Z,32.46
2018-09-27T12:45:47.423Z,32.75
2018-09-27T12:48:16.626Z,32.51
2018-09-27T12:50:45.893Z,32.69
2018-09-27T12:53:14.967Z,33.32
2018-09-27T12:55:43.984Z,31.76
2018-09-27T12:58:13.153Z,33.12
2018-09-27T13:00:42.253Z,32.89
2018-09-27T13:03:11.352Z,31.47
2018-09-27T13:05:40.437Z,33.63
2018-09-27T13:08:09.606Z,32.76
2018-09-27T13:10:38.758Z,32.98
2018-09-27T13:13:08.008Z,33.82
2018-09-27T13:15:37.044Z,32.66
2018-09-27T13:18:06.120Z,33.63
2018-09-27T13:20:35.296Z,34.33
2018-09-27T13:23:04.452Z,33.31
2018-09-27T13:25:33.521Z,34.16
2018-09-27T13:28:02.742Z,34.70
2018-09-27T13:30:31.974Z,32.69
2018-09-27T13:33:01.123Z,34.46
2018-09-27T13:35:30.209Z,34.39
2018-09-27T13:37:59.285Z,34.36
2018-09-27T13:40:28.376Z,34.22
2018-09-27T13:42:57.479Z,34.79
2018-09-27T13:45:26.605Z,35.21
2018-09-27T13:47:55.856Z,34.49
2018-09-27T13:50:24.977Z,34.90
2018-09-27T13:52:54.067Z,35.28
2018-09-27T13:55:23.163Z,34.91
2018-09-27T13:57:52.278Z,34.41
2018-09-27T14:00:21.466Z,34.35
2018-09-27T14:02:50.655Z,34.80
2018-09-27T14:05:22.843Z,34.19
2018-09-27T14:07:51.944Z,33.70
2018-09-27T14:10:21.013Z,34.26
2018-09-27T14:12:50.140Z,34.12
2018-09-27T14:15:19.185Z,34.23
2018-09-27T14:17:48.303Z,33.85
2018-09-27T14:20:17.393Z,33.68
2018-09-27T14:22:46.500Z,34.20
2018-09-27T14:25:15.568Z,33.62
2018-09-27T14:27:44.791Z,33.71
2018-09-27T14:30:13.859Z,33.45
2018-09-27T14:32:42.931Z,33.85
2018-09-27T14:35:12.058Z,33.98
2018-09-27T14:37:41.160Z,33.91
2018-09-27T14:40:10.229Z,33.42
2018-09-27T14:42:39.384Z,32.71
2018-09-27T14:45:08.430Z,33.35
2018-09-27T14:47:37.580Z,33.27
2018-09-27T14:50:06.714Z,32.77
2018-09-27T14:52:35.898Z,33.23
2018-09-27T14:55:04.972Z,33.18
2018-09-27T14:57:34.032Z,33.00
2018-09-27T15:00:03.131Z,32.79
2018-09-27T15:02:32.273Z,33.32
2018-09-27T15:05:01.298Z,32.70
2018-09-27T15:07:30.391Z,32.76
2018-09-27T15:09:59.972Z,32.84
2018-09-27T15:12:29.118Z,32.46
2018-09-27T15:14:58.225Z,31.99
2018-09-27T15:17:27.286Z,31.88
2018-09-27T15:19:56.376Z,31.89
2018-09-27T15:22:25.526Z,31.98
2018-09-27T15:24:54.553Z,31.53
2018-09-27T15:27:23.775Z,31.08
2018-09-27T15:29:52.876Z,30.62
2018-09-27T15:32:21.993Z,31.17
2018-09-27T15:34:51.068Z,30.75
2018-09-27T15:37:20.136Z,30.49
2018-09-27T15:39:49.307Z,30.34
2018-09-27T15:42:18.452Z,30.22
2018-09-27T15:44:47.560Z,30.22
2018-09-27T15:47:16.672Z,29.46
2018-09-27T15:49:45.887Z,29.83
2018-09-27T15:52:15.030Z,29.62
2018-09-27T15:54:44.226Z,29.37
2018-09-27T15:57:13.356Z,28.82
2018-09-27T15:59:42.447Z,28.56
2018-09-27T16:02:11.560Z,27.22
2018-09-27T16:04:40.720Z,27.24
2018-09-27T16:07:09.828Z,26.19
2018-09-27T16:09:38.924Z,27.32
2018-09-27T16:12:08.027Z,26.56
2018-09-27T16:14:37.173Z,24.84
2018-09-27T16:17:06.291Z,23.90
2018-09-27T16:19:35.395Z,23.35
2018-09-27T16:22:04.617Z,23.04
2018-09-27T16:24:33.788Z,21.93
2018-09-27T16:27:02.892Z,22.32
2018-09-27T16:29:32.123Z,22.12
2018-09-27T16:32:01.233Z,21.78
2018-09-27T16:34:30.466Z,21.70
2018-09-27T16:36:59.594Z,21.66
2018-09-27T16:39:28.670Z,21.44
2018-09-27T16:41:57.785Z,21.02
2018-09-27T16:44:26.961Z,21.12
2018-09-27T16:46:56.176Z,21.02
2018-09-27T16:49:25.360Z,20.67
2018-09-27T16:51:54.568Z,20.74
2018-09-27T16:54:23.748Z,20.65
2018-09-27T16:56:52.868Z,20.50
2018-09-27T16:59:22.030Z,20.49
2018-09-27T17:01:51.288Z,20.20
2018-09-27T17:04:20.384Z,20.10
2018-09-27T17:06:49.524Z,19.92
2018-09-27T17:09:18.636Z,19.86
2018-09-27T17:11:47.741Z,19.55
2018-09-27T17:14:16.917Z,19.63
2018-09-27T17:16:46.049Z,19.13
2018-09-27T17:19:15.131Z,19.04
2018-09-27T17:21:44.368Z,18.99
2018-09-27T17:24:13.599Z,19.09
2018-09-27T17:26:42.653Z,18.75
2018-09-27T17:29:11.747Z,18.56
2018-09-27T17:31:40.967Z,18.63
2018-09-27T17:34:10.001Z,18.48
2018-09-27T17:36:39.176Z,18.21
2018-09-27T17:39:08.716Z,18.11
2018-09-27T17:41:38.070Z,18.34
2018-09-27T17:44:07.408Z,18.18
2018-09-27T17:46:36.608Z,17.91
2018-09-27T17:49:05.579Z,17.78
2018-09-27T17:51:34.741Z,17.77
2018-09-27T17:54:03.888Z,17.68
2018-09-27T17:56:33.032Z,17.55
2018-09-27T17:59:02.343Z,17.13
2018-09-27T18:01:31.435Z,17.20
2018-09-27T18:04:00.728Z,17.18
2018-09-27T18:06:29.958Z,16.98
2018-09-27T18:08:59.071Z,17.09
2018-09-27T18:11:28.182Z,16.98
2018-09-27T18:13:57.266Z,17.00
2018-09-27T18:16:26.497Z,16.95
2018-09-27T18:18:55.640Z,16.65
2018-09-27T18:21:24.757Z,16.55
2018-09-27T18:23:53.849Z,16.66
2018-09-27T18:26:22.939Z,16.57
2018-09-27T18:28:52.023Z,16.43
2018-09-27T18:31:21.245Z,16.44
2018-09-27T18:33:50.433Z,16.21
2018-09-27T18:36:19.525Z,16.36
2018-09-27T18:38:48.808Z,16.21
2018-09-27T18:41:17.868Z,16.10
2018-09-27T18:43:46.956Z,16.08
2018-09-27T18:46:16.113Z,16.03
2018-09-27T18:48:45.191Z,15.82
2018-09-27T18:51:14.369Z,15.94
2018-09-27T18:53:43.416Z,15.83
2018-09-27T18:56:12.578Z,15.71
2018-09-27T18:58:41.696Z,15.49
2018-09-27T19:01:10.888Z,15.66
2018-09-27T19:03:39.989Z,15.74
2018-09-27T19:06:09.168Z,15.58
2018-09-27T19:08:38.301Z,15.42
2018-09-27T19:11:08.281Z,15.31
2018-09-27T19:13:37.403Z,15.26
2018-09-27T19:16:06.576Z,15.30
2018-09-27T19:18:35.688Z,15.13
2018-09-27T19:21:04.796Z,15.11
2018-09-27T19:23:33.919Z,15.16
2018-09-27T19:26:03.116Z,15.05
2018-09-27T19:28:32.195Z,14.97
2018-09-27T19:31:01.352Z,14.97
2018-09-27T19:33:30.751Z,14.79
2018-09-27T19:35:59.880Z,14.71
2018-09-27T19:38:29.144Z,14.78
2018-09-27T19:40:58.209Z,14.75
2018-09-27T19:43:27.331Z,14.72
2018-09-27T19:45:56.428Z,14.64
2018-09-27T19:48:25.533Z,14.31
2018-09-27T19:50:54.621Z,14.61
2018-09-27T19:53:23.922Z,14.55
2018-09-27T19:55:53.024Z,14.36
2018-09-27T19:58:22.204Z,14.47
2018-09-27T20:00:51.253Z,14.51
2018-09-27T20:03:20.417Z,14.36
2018-09-27T20:05:49.541Z,14.37
2018-09-27T20:08:18.701Z,14.37
2018-09-27T20:10:47.833Z,14.33
2018-09-27T20:13:16.900Z,14.23
2018-09-27T20:15:45.997Z,14.29
2018-09-27T20:18:15.275Z,14.10
2018-09-27T20:20:44.408Z,14.11
2018-09-27T20:23:13.496Z,14.02
2018-09-27T20:25:42.684Z,13.89
2018-09-27T20:28:12.150Z,13.98
2018-09-27T20:30:41.200Z,13.78
2018-09-27T20:33:10.290Z,13.84
2018-09-27T20:35:39.492Z,13.82
2018-09-27T20:38:08.676Z,13.75
2018-09-27T20:40:37.847Z,13.62
2018-09-27T20:43:06.951Z,13.68
2018-09-27T20:45:36.067Z,13.75
2018-09-27T20:48:05.196Z,13.70
2018-09-27T20:50:34.308Z,13.58
2018-09-27T20:53:03.471Z,13.42
2018-09-27T20:55:32.666Z,13.36
2018-09-27T20:58:01.770Z,13.37
2018-09-27T21:00:31.127Z,13.40
2018-09-27T21:03:00.263Z,13.36
2018-09-27T21:05:29.444Z,13.36
2018-09-27T21:07:58.549Z,13.25
2018-09-27T21:10:27.710Z,13.25
2018-09-27T21:12:56.841Z,13.26
2018-09-27T21:15:25.933Z,13.09
2018-09-27T21:17:55.045Z,13.15
2018-09-27T21:20:24.137Z,13.13
2018-09-27T21:22:53.234Z,13.01
2018-09-27T21:25:22.397Z,13.00
2018-09-27T21:27:51.497Z,13.04
2018-09-27T21:30:20.589Z,12.98
2018-09-27T21:32:49.788Z,12.92
2018-09-27T21:35:18.889Z,12.93
2018-09-27T21:37:48.120Z,12.96
2018-09-27T21:40:17.204Z,12.92
2018-09-27T21:42:46.392Z,12.95
2018-09-27T21:45:15.584Z,12.67
2018-09-27T21:47:44.688Z,12.74
2018-09-27T21:50:13.938Z,12.71
2018-09-27T21:52:42.991Z,12.75
2018-09-27T21:55:12.148Z,12.70
2018-09-27T21:57:41.286Z,12.57
2018-09-27T22:00:10.445Z,12.61
2018-09-27T22:02:39.534Z,12.51
2018-09-27T22:05:08.659Z,12.56
2018-09-27T22:07:37.766Z,12.36
2018-09-27T22:10:06.879Z,12.34
2018-09-27T22:12:35.983Z,12.38
2018-09-27T22:15:05.560Z,12.28
2018-09-27T22:17:34.663Z,12.17
2018-09-27T22:20:03.882Z,12.10
2018-09-27T22:22:33.088Z,12.09
2018-09-27T22:25:04.173Z,12.18
2018-09-27T22:27:33.264Z,12.18
2018-09-27T22:30:02.492Z,12.16
2018-09-27T22:32:31.599Z,12.00
2018-09-27T22:35:00.718Z,12.11
2018-09-27T22:37:29.843Z,12.04
2018-09-27T22:39:59.591Z,12.03
2018-09-27T22:42:28.767Z,11.92
2018-09-27T22:44:57.906Z,11.87
2018-09-27T22:47:27.041Z,11.94
2018-09-27T22:49:56.181Z,11.95
2018-09-27T22:52:25.469Z,11.80
2018-09-27T22:54:54.631Z,11.66
2018-09-27T22:57:23.708Z,11.73
2018-09-27T22:59:52.821Z,11.62
2018-09-27T23:02:22.029Z,11.52
2018-09-27T23:04:51.217Z,11.51
2018-09-27T23:07:20.349Z,11.63
2018-09-27T23:09:49.505Z,11.63
2018-09-27T23:12:18.599Z,11.73
2018-09-27T23:14:47.712Z,11.57
2018-09-27T23:17:16.999Z,11.55
2018-09-27T23:19:46.296Z,11.54
2018-09-27T23:22:15.424Z,11.51
2018-09-27T23:24:44.516Z,11.44
2018-09-27T23:27:13.697Z,11.45
2018-09-27T23:29:42.812Z,11.46
2018-09-27T23:32:12.024Z,11.46
2018-09-27T23:34:41.196Z,11.44
2018-09-27T23:37:10.304Z,11.46
2018-09-27T23:39:39.476Z,11.35
2018-09-27T23:42:08.601Z,11.33
2018-09-27T23:44:37.792Z,11.43
2018-09-27T23:47:07.091Z,11.45
2018-09-27T23:49:36.182Z,11.40
2018-09-27T23:52:05.312Z,11.31
2018-09-27T23:54:34.467Z,11.26
2018-09-27T23:57:03.571Z,11.16
2018-09-27T23:59:32.784Z,11.03
